Rockland, ME

07:07 PM EST del 25 novembre 2014 (GMT -0500)
Upper Park Street | Change Station
CLOSE
Current Station
Stazione meteo personale
Location: Rockland, ME
Altitudine: 79 ft
Stazioni meteo nelle vicinanze
Avvisi attivi: Winter Storm Warning

Alt. 79 ft 44.10 °N, 69.13 °W | Updated 4 seconds ago

Sereno
Sereno
51.4 °F
Sembra 51.4 °F
N
13.5
Vento Variabile Vento da OSO
Gusts 23.0 mph

Oggi
Massima -- | Minima -- °F
--% Possibilità di precip.
Ieri
Massima -- | Minima -- °F
Precip. -- in
6:44 AM 4:02 PM
Luna crescente, 15% visible
Pressione 29.91 in
Visibilità 10.0 miglia
Nuvole Sereno
Punto di rugiada 31 °F
Umidità 46%
Piovosità 0.00 in
Spessore del manto nevoso Non disponibile.
Raggi UV 0 fuori da 12
Polline .10 fuori da 12
Qualità dell'aria Non disponibile.
Flu Activity Non disponibile.
METAR KRKD 252355Z AUTO 26010KT 10SM CLR 11/M02 A2991 RMK AO1 10140 20110 401400110 52037

More Conditions Fewer Conditions

Pressione 29.91 in
Visibilità 10.0 miglia
Nuvole Sereno
Punto di rugiada 31 °F
Umidità 46%
Piovosità 0.00 in
Spessore del manto nevoso Non disponibile.
Raggi UV 0 fuori da 12
Polline .10 fuori da 12
Qualità dell'aria Non disponibile.
Flu Activity Non disponibile.
METAR KRKD 252355Z AUTO 26010KT 10SM CLR 11/M02 A2991 RMK AO1 10140 20110 401400110 52037

More Conditions Fewer Conditions

10-Day Weather Forecast

Almanac

Astronomia

Nov. 25, 2014 Alba Tramonto
Ora attuale
Crepuscolo civile
Crepuscolo nautico
Crepuscolo astronomico
Luna
Estensione della luce visibile
Lunghezza del giorno
Tomorrow will be .
, % of the Moon is Illuminated

Gli estremi di oggi

State Highs State Lows

Community

WunderPhotos

Upload Photos

1,773,625 foto caricate!

WunderBlogs® & News

Nearby

Qualità dell'aria

  Qualità dell'aria Indice AQ Inquinante
Not available.

Profondità neve

Stazione Profondità Altitudine

Attività sismica

Città  Distanza Mag. Data & Ora
Minimo Magnitudo Mostrato è 2.5.

Temperature delle acque costiere

Località Temperatura

Stazioni meteo nelle vicinanze